Stations météo

réclame
Mon MeteoGroup
Halmstad, Suède (2604): Température de l'air & dewpoint: 16.08.2019 02:00:00 - 22.08.2019 02:00:00 (CEST)Halmstad, Suède (2604): Vitesse du vent: 16.08.2019 02:00:00 - 22.08.2019 02:00:00 (CEST)Halmstad, Suède (2604): Direction du vent: 16.08.2019 02:00:00 - 22.08.2019 02:00:00 (CEST)Halmstad, Suède (2604): visibility: 16.08.2019 02:00:00 - 22.08.2019 02:00:00 (CEST)
Date & Time tt [°C] td [°C] ff [km/h] ff [knt] dd vv [km]
22.08.2019 02:00:00 10,0 9,0 0 0 N 10
22.08.2019 01:00:00 13,0 9,0 4 2 - 10
22.08.2019 00:00:00 14,0 9,0 4 2 S 10
21.08.2019 23:00:00 14,0 9,0 2 1 - 10
21.08.2019 22:00:00 14,0 9,0 5 3 W 10
21.08.2019 21:00:00 14,0 9,0 9 5 W 10
21.08.2019 20:00:00 16,0 10,0 11 6 W 10
21.08.2019 19:00:00 17,0 10,0 16 9 W 10
21.08.2019 18:00:00 17,0 9,0 18 10 W 10
21.08.2019 17:00:00 17,0 10,0 21 11 W 10
21.08.2019 16:00:00 18,0 11,0 24 13 W 10
21.08.2019 15:00:00 18,0 11,0 24 13 W 10
21.08.2019 14:00:00 17,0 11,0 24 13 W 10
21.08.2019 13:00:00 18,0 12,0 24 13 W 10
21.08.2019 12:00:00 17,0 11,0 22 12 W 10
21.08.2019 11:00:00 17,0 12,0 22 12 WNW 10
21.08.2019 10:00:00 17,0 12,0 18 10 W 10
21.08.2019 09:00:00 16,0 12,0 18 10 WSW 10
21.08.2019 08:00:00 15,0 12,0 15 8 W 10
21.08.2019 07:00:00 15,0 12,0 15 8 W 10
21.08.2019 06:00:00 14,0 11,0 13 7 W 10
21.08.2019 05:00:00 14,0 11,0 13 7 W 10
21.08.2019 04:00:00 14,0 11,0 0 0 N 10
21.08.2019 03:00:00 14,0 11,0 0 0 N 10
21.08.2019 02:00:00 14,0 11,0 4 2 W 10
21.08.2019 01:00:00 14,0 11,0 0 0 N 10
21.08.2019 00:00:00 12,0 11,0 5 3 NNE 8
20.08.2019 23:00:00 12,0 11,0 5 3 NE 10
20.08.2019 22:00:00 15,0 11,0 5 3 SE 10
20.08.2019 21:00:00 15,0 12,0 5 3 - 10
20.08.2019 20:00:00 17,0 13,0 11 6 SW 10
20.08.2019 19:00:00 18,0 12,0 18 10 WSW 10
20.08.2019 18:00:00 19,0 13,0 22 12 WSW 10
20.08.2019 17:00:00 19,0 13,0 22 12 WSW 10
20.08.2019 16:00:00 18,0 13,0 26 14 WSW 10
20.08.2019 15:00:00 19,0 14,0 18 10 SW 10
20.08.2019 14:00:00 19,0 14,0 24 13 SW 10
20.08.2019 13:00:00 18,0 13,0 24 13 WSW 10
20.08.2019 12:00:00 19,0 15,0 28 15 SSW 10
20.08.2019 11:00:00 17,0 14,0 24 13 SSW 10
20.08.2019 10:00:00 15,0 12,0 4 2 - 10
20.08.2019 09:00:00 13,0 12,0 18 10 S 3,0
20.08.2019 08:00:00 16,0 13,0 13 7 SW 10
20.08.2019 07:00:00 16,0 13,0 16 9 WSW 10
20.08.2019 06:00:00 15,0 13,0 16 9 W 10
20.08.2019 05:00:00 16,0 13,0 18 10 WSW 10
20.08.2019 04:00:00 16,0 13,0 16 9 SW 10
20.08.2019 03:00:00 16,0 13,0 21 11 WSW 10
20.08.2019 02:00:00 16,0 13,0 21 11 WSW 10
20.08.2019 01:00:00 16,0 13,0 26 14 WSW 10
20.08.2019 00:00:00 17,0 15,0 26 14 SW 10
19.08.2019 23:00:00 17,0 14,0 21 11 SW 10
19.08.2019 22:00:00 17,0 14,0 22 12 SW 10
19.08.2019 21:00:00 17,0 14,0 22 12 SW 10
19.08.2019 20:00:00 17,0 14,0 18 10 SW 10
19.08.2019 19:00:00 16,0 13,0 13 7 SW 10
19.08.2019 18:00:00 18,0 13,0 29 16 SW 10
19.08.2019 17:00:00 19,0 13,0 29 16 WSW 10
19.08.2019 16:00:00 20,0 14,0 31 17 WSW 10
19.08.2019 15:00:00 20,0 15,0 31 17 SW 10
19.08.2019 14:00:00 20,0 14,0 31 17 SW 10
19.08.2019 13:00:00 19,0 14,0 26 14 SW 10
19.08.2019 12:00:00 18,0 15,0 28 15 SW 10
19.08.2019 11:00:00 18,0 15,0 28 15 SSW 10
19.08.2019 10:00:00 18,0 15,0 29 16 SW 10
19.08.2019 09:00:00 17,0 14,0 24 13 SSW 10
19.08.2019 08:00:00 17,0 13,0 18 10 SW 10
19.08.2019 07:00:00 15,0 12,0 13 7 WSW 10
19.08.2019 06:00:00 15,0 12,0 16 9 WSW 10
19.08.2019 05:00:00 15,0 12,0 18 10 W 10
19.08.2019 04:00:00 15,0 12,0 21 11 W 10
19.08.2019 03:00:00 15,0 12,0 15 8 W 10
19.08.2019 02:00:00 16,0 12,0 22 12 W 10
19.08.2019 01:00:00 16,0 13,0 21 11 W 10
19.08.2019 00:00:00 16,0 14,0 22 12 WSW 10
18.08.2019 23:00:00 14,0 14,0 8 4 SSW 3,9
18.08.2019 22:00:00 14,0 14,0 8 4 WNW 10
18.08.2019 21:00:00 14,0 14,0 9 5 WNW 6
18.08.2019 20:00:00 15,0 14,0 8 4 WSW 1,8
18.08.2019 19:00:00 17,0 16,0 4 2 SSE 10
18.08.2019 18:00:00 17,0 15,0 5 3 SSE 10
18.08.2019 17:00:00 19,0 15,0 8 4 SSE 10
18.08.2019 16:00:00 18,0 15,0 5 3 - 10
18.08.2019 15:00:00 18,0 15,0 11 6 S 10
18.08.2019 14:00:00 18,0 14,0 8 4 S 10
18.08.2019 13:00:00 18,0 15,0 13 7 S 10
18.08.2019 12:00:00 18,0 14,0 11 6 SW 10
18.08.2019 11:00:00 18,0 14,0 13 7 WSW 10
18.08.2019 10:00:00 18,0 16,0 9 5 S 10
18.08.2019 09:00:00 17,0 16,0 5 3 SE 10
18.08.2019 08:00:00 16,0 15,0 4 2 - 10
18.08.2019 07:00:00 15,0 14,0 5 3 ESE 10
18.08.2019 06:00:00 15,0 14,0 8 4 ESE 10
18.08.2019 05:00:00 15,0 15,0 8 4 S 10
18.08.2019 04:00:00 16,0 15,0 8 4 SW 10
18.08.2019 03:00:00 18,0 16,0 15 8 SSW 10
18.08.2019 02:00:00 17,0 16,0 18 10 SSW 10
18.08.2019 01:00:00 17,0 16,0 21 11 S 10
18.08.2019 00:00:00 18,0 16,0 21 11 SSW 10
17.08.2019 23:00:00 18,0 16,0 21 11 S 10
17.08.2019 22:00:00 18,0 16,0 16 9 S 10
17.08.2019 21:00:00 17,0 16,0 21 11 S 10
17.08.2019 20:00:00 17,0 16,0 18 10 S 2,1
17.08.2019 19:00:00 18,0 16,0 18 10 S 10
17.08.2019 18:00:00 18,0 15,0 26 14 S 10
17.08.2019 17:00:00 18,0 15,0 24 13 S 10
17.08.2019 16:00:00 17,0 15,0 24 13 S 10
17.08.2019 15:00:00 17,0 15,0 24 13 S 6
17.08.2019 14:00:00 17,0 15,0 24 13 SSE 10
17.08.2019 13:00:00 17,0 15,0 18 10 SSE 10
17.08.2019 12:00:00 16,0 14,0 15 8 SSE 10
17.08.2019 11:00:00 16,0 14,0 16 9 SE 10
17.08.2019 10:00:00 15,0 14,0 15 8 SSE 8
17.08.2019 09:00:00 16,0 14,0 24 13 S 6
17.08.2019 08:00:00 16,0 13,0 16 9 SE 10
17.08.2019 07:00:00 15,0 12,0 18 10 SSE 10
17.08.2019 06:00:00 14,0 11,0 13 7 SE 10
17.08.2019 05:00:00 14,0 11,0 11 6 SE 10
17.08.2019 04:00:00 14,0 11,0 11 6 SE 10
17.08.2019 03:00:00 16,0 12,0 15 8 S 10
17.08.2019 02:00:00 16,0 12,0 15 8 SSW 10
17.08.2019 01:00:00 15,0 10,0 15 8 SSW 10
17.08.2019 00:00:00 16,0 10,0 16 9 SW 10
16.08.2019 23:00:00 15,0 12,0 11 6 SSW 10
16.08.2019 22:00:00 15,0 12,0 9 5 SSW 10
16.08.2019 21:00:00 15,0 12,0 9 5 SSW 10
16.08.2019 20:00:00 16,0 13,0 8 4 SW 10
16.08.2019 19:00:00 17,0 13,0 13 7 W 10
16.08.2019 18:00:00 17,0 14,0 13 7 WNW 10
16.08.2019 17:00:00 17,0 14,0 13 7 W 10
16.08.2019 16:00:00 18,0 14,0 18 10 W 10
16.08.2019 15:00:00 18,0 14,0 22 12 WNW 10
16.08.2019 14:00:00 18,0 15,0 24 13 W 10
16.08.2019 13:00:00 18,0 15,0 18 10 W 10
16.08.2019 12:00:00 19,0 15,0 22 12 WSW 10
16.08.2019 11:00:00 18,0 16,0 22 12 W 10
16.08.2019 10:00:00 18,0 17,0 15 8 W 10
16.08.2019 09:00:00 17,0 17,0 0 0 N 10
16.08.2019 08:00:00 17,0 16,0 9 5 ESE 6
16.08.2019 07:00:00 16,0 15,0 8 4 SE 4,6
16.08.2019 06:00:00 16,0 15,0 11 6 SE 5
16.08.2019 05:00:00 16,0 15,0 8 4 ESE 10
16.08.2019 04:00:00 16,0 14,0 15 8 ESE 10
16.08.2019 03:00:00 15,0 14,0 13 7 SE 10
16.08.2019 02:00:00 15,0 14,0 13 7 SE 10

tt = Température de l'air
td = dewpoint
ff = Vitesse du vent
dd = Direction du vent
vv = visibility

stations d'obs. à proximité